Airfield :
LOGIN :

Register | Disclaimer

   EN    FR    IT 

 










Legend :    VFR   Marginal VFR   IFR   Intensive IFR   Very Intensive IFR
Visi :
Ceiling :
>= 8 km
>= 3000ft
5 to 8 km
1000 to 3000 ft
1500m to 5 km
500 to 1000 ft
800 to 1500m
200 to 500 ft
< 800m
< 200 ft
Symbols :   Thunderstorms  Fog  Heavy snow  Heavy precipitations  Wind > 20 kt
SIGMETs :     Misc.  Thunderstorms  Icing  Turbulence  Mountain Waves  Volcanic Ashes






- Airport Elevation : 1 ft


EGCK - Caernarfon

CURRENT METAR :
  • 262050Z AUTO 28017KT 9999 SCT023/// BKN035/// 11/07 Q0999

EXPIRED METARs :
  • 262020Z AUTO 28018KT 9999 FEW007/// SCT023/// BKN043/// 11/07 Q0999
  • 261950Z AUTO 28021KT 9999 -RA FEW024/// SCT036/// 11/07 Q0999
  • 261920Z AUTO 28021KT 9999 SCT026/// BKN041/// 12/07 Q0998
  • 261850Z AUTO 28021KT 9999 FEW024/// SCT047/// 12/07 Q0998
  • 261820Z AUTO 28020KT 9999 FEW025/// BKN048/// 12/07 Q0998
  • 261750Z AUTO 28019KT 9999 SCT027/// 12/07 Q0998

TAF TAF EGCK
Valid from the 26 at 21:00 until the 27 at 06:00 UTC


261955Z 2621/2706 27018KT 9999 SCT030
PROB40
TEMPO 2621/2624 28021G31KT 7000 SHRA
TEMPO 2704/2706 6000 RA BKN010



MET'MAP, your aeronautical weather chart ! - Copyright ORBIFLY December 2007 - Disclaimer

ORBIFLY MET'MAP TEAM :

Programming & Development : Alexandra Zaïnal
Concept & original design : Baudouin d'Aumeries
Assistance for programming : Marc-Olivier Méhu
Technical & hardware support : Manuel Goepfert

Contact : metmap@orbifly.com




SOURCES & CREDITS :

   NOAA